Terminal Aerodrome Forecast
Issued by NWS Springfield, MO

Home | Current Version | Previous Version | Text Only | Print | Product List | Glossary On
Versions: 1 2 3 4 5 6 7 8 9 10 11 12 13 14 15 16 17 18 19 20
047
FTUS43 KSGF 202324
TAFSGF
TAF
KSGF 202324Z 2100/2124 26010KT P6SM VCSH OVC080
     FM210800 VRB03KT P6SM VCSH OVC035
     FM211200 VRB03KT 2SM BR BKN008 BKN015
      TEMPO 2112/2116 1 1/2SM BR BKN003
     FM211600 34007KT P6SM BKN020
     FM211900 35008KT P6SM BKN045
     FM212000 35008KT P6SM SCT070=

USA.gov is the U.S. government's official web portal to all federal, state and local government web resources and services.